• Join FlightAware (Why Join?)
  • Login
  • US Flag 
06:51PM EST


 

Airport Tracker/Info


-or-


 

Live Flight TrackerFlight Track Log ✈ DAL6091 ✈ 20-Apr-2013 ✈ KRIC - KJFK

Flight Track Log - Related Links

Times and Time Zones

All times are in EDT time to prevent confusion due to time zone crossing. See the DAL6091 flight status page for this flight to view local times or setup timezone preferences in your user account.

Time Position Orientation Groundspeed Altitude Reporting Facility
EDT Latitude Longitude Course Direction KTS MPH feet Rate Location/Type
12:44PM 37.5667 -77.3167 38° Northeast 191 220 2,300  Level Potomac TRACON
12:45PM 37.5892 -77.3267 341° North 215 247 2,900 1,920 Climbing Washington Center
12:46PM 37.6475 -77.3333 355° North 237 273 5,300 2,280 Climbing Washington Center
12:47PM 37.8546 -76.9455 38° Northeast  Level FlightAware Approximate
12:47PM 37.6986 -77.2714 44° Northeast 221 254 7,500  Level Washington Center
12:48PM 37.9451 -76.8549 38° Northeast  Level FlightAware Approximate
12:48PM 37.7497 -77.1911 51° Northeast 245 282 8,900  Level Washington Center
12:49PM 38.0292 -76.7552 45° Northeast  Level FlightAware Approximate
12:49PM 37.8072 -77.1006 51° Northeast 288 331 10,500  Level Washington Center
12:50PM 38.0952 -76.6381 38° Northeast  Level FlightAware Approximate
12:50PM 37.8731 -77.0044 49° Northeast 330 380 11,800  Level Washington Center
12:51PM 37.9389 -76.9003 51° Northeast 358 412 13,300 1,560 Climbing Washington Center
12:52PM 38.0108 -76.7961 49° Northeast 378 435 15,000 1,680 Climbing Washington Center
12:53PM 38.0806 -76.6892 50° Northeast 384 442 16,700 960 Climbing Washington Center
12:54PM 38.1544 -76.5844 48° Northeast 390 449 17,000 120 Climbing Washington Center
12:55PM 38.2367 -76.4694 48° Northeast 408 470 17,000  Level Washington Center
12:56PM 38.3397 -76.3514 42° Northeast 427 491 17,000  Level Washington Center
12:57PM 38.4425 -76.2569 36° Northeast 446 513 17,100  Climbing Washington Center
12:58PM 38.5389 -76.1703 35° Northeast 440 506 17,100 -120 Level Washington Center
12:59PM 38.6267 -76.0858 37° Northeast 435 501 16,900 -120 Descending Washington Center
01:00PM 38.7147 -75.9856 42° Northeast 425 489 16,900  Level Washington Center
01:01PM 38.7839 -75.8606 55° Northeast 418 481 16,900  Level Washington Center
01:02PM 38.8528 -75.7275 56° Northeast 430 495 16,900  Level Washington Center
01:03PM 38.9258 -75.5917 55° Northeast 448 516 16,900  Level Washington Center
01:04PM 38.9967 -75.4608 55° Northeast 453 521 16,900  Level Washington Center
01:05PM 39.0672 -75.3217 57° Northeast 453 521 16,900  Level Washington Center
01:06PM 39.1378 -75.1928 55° Northeast 453 521 16,900  Level Washington Center
01:07PM 39.2081 -75.0586 56° Northeast 448 516 16,900  Level Washington Center
01:08PM 39.2742 -74.9239 58° Northeast 448 516 16,900  Level Washington Center
01:09PM 39.3461 -74.7892 55° Northeast 448 516 16,900  Level Washington Center
01:10PM 39.4161 -74.6539 56° Northeast 448 516 16,900  Level Washington Center
01:11PM 39.4878 -74.5186 56° Northeast 448 516 16,900  Level Washington Center
01:11PM 39.5158 -74.4656 56° Northeast 447 514 16,900  Level New York Center
01:12PM 39.5867 -74.3347 55° Northeast 448 516 16,900  Level New York Center
01:13PM 39.6458 -74.2325 53° Northeast 411 473 17,000 -660 Climbing New York Center
01:14PM 39.7264 -74.1178 48° Northeast 392 451 15,700 -1,500 Descending New York Center
01:15PM 39.8061 -74.0297 40° Northeast 380 437 14,100 -1,680 Descending New York Center
01:16PM 39.8894 -73.9525 35° Northeast 368 423 12,400 -1,560 Descending New York Center
01:17PM 39.9700 -73.8992 27° Northeast 351 404 11,000 -720 Descending New York Center
01:18PM 40.0469 -73.8242 37° Northeast 340 391 11,000 -180 Level New York Center
01:19PM 40.1200 -73.7458 39° Northeast 347 399 10,700 -720 Descending New York Center
01:20PM 40.1667 -73.7500 356° North 290 334 10,000 -1,500 Descending New York TRACON
01:21PM 40.1833 -73.8500 282° West 223 257 8,500 -1,380 Descending New York TRACON
01:22PM 40.2000 -73.9167 288° West 210 242 7,200 -1,200 Descending New York TRACON
01:22PM 40.2150 -73.9347 317° Northwest 189 217 6,800 -1,320 Descending New York Center
01:23PM 40.2731 -73.8694 41° Northeast 200 230 5,300 -1,440 Descending New York Center
01:24PM 40.2833 -73.8333 70° East 277 319 4,800 -1,320 Descending New York TRACON
01:25PM 40.3333 -73.7667 45° Northeast 252 290 3,500 -1,380 Descending New York TRACON
01:26PM 40.4000 -73.7167 30° Northeast 245 282 2,100 -720 Descending New York TRACON
01:27PM 40.4333 -73.6500 57° Northeast 194 223 2,000 -60 Descending New York TRACON
01:28PM 40.4833 -73.6500 360° North 175 201 2,000 -120 Level New York TRACON
01:29PM 40.5333 -73.6500 360° North 167 192 1,800 -240 Descending New York TRACON